BCS4KB EIDW-EDDK
Flight info
| Callsign | BCS4KB |
|---|---|
| Flight time | 1h 29m |
| Altitude | 35000 |
| Route | ENDEQ3J ENDEQ Q36 ALAVA Z195 MALUD UL975 WAL M16 DOLAS L603 LAMSO DCT PAM L620 SONEB/N0447F230 Z841 GETNI T858 KOPAG KOPAG1G |
| Aircraft | B77L/H-SDE1E2E3FGHIJ2J3J4J5M1RWXY/LB1D1 |
Departure
| Time | 2026-04-26 08:52 |
|---|---|
| Airport | Dublin Airport (EIDW) |
Arrival
| Time | 2026-04-26 10:22 |
|---|---|
| Airport | Cologne Bonn Airport (EDDK) |
| Time | Latitude | Longitude | Altitude | Speed | Heading |
|---|---|---|---|---|---|
| 2026-04-26 08:24 | 53.42590 | -6.26160 | 219 ft | 0 kts | 5° |
| 2026-04-26 08:40 | 53.42572 | -6.26163 | 218 ft | 4 kts | 11° |
| 2026-04-26 08:40 | 53.42546 | -6.26176 | 221 ft | 4 kts | 25° |
| 2026-04-26 08:40 | 53.42524 | -6.26199 | 224 ft | 4 kts | 50° |
| 2026-04-26 08:41 | 53.42515 | -6.26232 | 220 ft | 1 kts | 95° |
| 2026-04-26 08:41 | 53.42515 | -6.26233 | 220 ft | 0 kts | 96° |
| 2026-04-26 08:45 | 53.42512 | -6.26197 | 217 ft | 10 kts | 96° |
| 2026-04-26 08:45 | 53.42500 | -6.25989 | 221 ft | 20 kts | 95° |
| 2026-04-26 08:45 | 53.42481 | -6.25814 | 223 ft | 15 kts | 76° |
| 2026-04-26 08:46 | 53.42548 | -6.25683 | 220 ft | 15 kts | 45° |
| 2026-04-26 08:46 | 53.42619 | -6.25556 | 217 ft | 15 kts | 47° |
| 2026-04-26 08:46 | 53.42707 | -6.25485 | 217 ft | 15 kts | 348° |
| 2026-04-26 08:46 | 53.42803 | -6.25554 | 222 ft | 16 kts | 336° |
| 2026-04-26 08:47 | 53.42918 | -6.25637 | 221 ft | 20 kts | 336° |
| 2026-04-26 08:47 | 53.43070 | -6.25748 | 224 ft | 27 kts | 336° |
| 2026-04-26 08:47 | 53.43240 | -6.25868 | 224 ft | 21 kts | 337° |
| 2026-04-26 08:47 | 53.43352 | -6.25877 | 217 ft | 17 kts | 45° |
| 2026-04-26 08:48 | 53.43404 | -6.25706 | 219 ft | 17 kts | 66° |
| 2026-04-26 08:48 | 53.43406 | -6.25502 | 215 ft | 21 kts | 95° |
| 2026-04-26 08:48 | 53.43393 | -6.25260 | 221 ft | 21 kts | 96° |
| 2026-04-26 08:48 | 53.43378 | -6.25015 | 215 ft | 21 kts | 95° |
| 2026-04-26 08:49 | 53.43364 | -6.24770 | 221 ft | 21 kts | 94° |
| 2026-04-26 08:49 | 53.43350 | -6.24525 | 216 ft | 21 kts | 96° |
| 2026-04-26 08:49 | 53.43335 | -6.24280 | 215 ft | 21 kts | 93° |
| 2026-04-26 08:49 | 53.43324 | -6.24035 | 221 ft | 21 kts | 96° |
| 2026-04-26 08:50 | 53.43389 | -6.23855 | 221 ft | 21 kts | 11° |
| 2026-04-26 08:50 | 53.43483 | -6.23901 | 219 ft | 13 kts | 290° |
| 2026-04-26 08:50 | 53.43488 | -6.23965 | 221 ft | 0 kts | 273° |
| 2026-04-26 08:51 | 53.43495 | -6.24079 | 215 ft | 25 kts | 275° |
| 2026-04-26 08:51 | 53.43533 | -6.24758 | 222 ft | 97 kts | 275° |
| 2026-04-26 08:52 | 53.43618 | -6.26306 | 227 ft | 165 kts | 275° |
| 2026-04-26 08:52 | 53.43724 | -6.28302 | 745 ft | 174 kts | 272° |
| 2026-04-26 08:52 | 53.43926 | -6.30321 | 1392 ft | 180 kts | 298° |
| 2026-04-26 08:52 | 53.44863 | -6.31675 | 1977 ft | 187 kts | 336° |
| 2026-04-26 08:53 | 53.46017 | -6.32891 | 2154 ft | 208 kts | 305° |
| 2026-04-26 08:53 | 53.46645 | -6.35192 | 2408 ft | 229 kts | 292° |
| 2026-04-26 08:53 | 53.47685 | -6.37308 | 2798 ft | 247 kts | 330° |
| 2026-04-26 08:53 | 53.49384 | -6.37938 | 3396 ft | 258 kts | 2° |
| 2026-04-26 08:54 | 53.51128 | -6.37099 | 3958 ft | 268 kts | 36° |
| 2026-04-26 08:54 | 53.52281 | -6.34770 | 4619 ft | 271 kts | 71° |
| 2026-04-26 08:54 | 53.52512 | -6.31667 | 5345 ft | 269 kts | 98° |
| 2026-04-26 08:54 | 53.52436 | -6.28524 | 6079 ft | 272 kts | 88° |
| 2026-04-26 08:55 | 53.52519 | -6.25285 | 6914 ft | 279 kts | 92° |
| 2026-04-26 08:55 | 53.52494 | -6.22031 | 7825 ft | 279 kts | 94° |
| 2026-04-26 08:55 | 53.52437 | -6.18754 | 8605 ft | 283 kts | 95° |
| 2026-04-26 08:55 | 53.52375 | -6.15420 | 9176 ft | 288 kts | 95° |
| 2026-04-26 08:56 | 53.52313 | -6.12039 | 9254 ft | 292 kts | 95° |
| 2026-04-26 08:56 | 53.52273 | -6.09787 | 9252 ft | 292 kts | 95° |
| 2026-04-26 08:56 | 53.52053 | -6.05295 | 9288 ft | 286 kts | 105° |
| 2026-04-26 08:56 | 53.51576 | -6.02042 | 9936 ft | 287 kts | 108° |
| 2026-04-26 08:57 | 53.51054 | -5.98784 | 10578 ft | 293 kts | 108° |
| 2026-04-26 08:57 | 53.50516 | -5.95337 | 10780 ft | 318 kts | 107° |
| 2026-04-26 08:57 | 53.49963 | -5.91630 | 11165 ft | 334 kts | 107° |
| 2026-04-26 08:57 | 53.49402 | -5.87775 | 11804 ft | 344 kts | 106° |
| 2026-04-26 08:58 | 53.48832 | -5.83831 | 12607 ft | 350 kts | 105° |
| 2026-04-26 08:58 | 53.48307 | -5.79813 | 13493 ft | 355 kts | 103° |
| 2026-04-26 08:58 | 53.47811 | -5.75771 | 14303 ft | 360 kts | 103° |
| 2026-04-26 08:58 | 53.47307 | -5.71633 | 15054 ft | 365 kts | 103° |
| 2026-04-26 08:59 | 53.46789 | -5.67418 | 15848 ft | 370 kts | 103° |
| 2026-04-26 08:59 | 53.46262 | -5.63178 | 16620 ft | 374 kts | 103° |
| 2026-04-26 08:59 | 53.45723 | -5.58878 | 17391 ft | 379 kts | 103° |
| 2026-04-26 08:59 | 53.45172 | -5.54517 | 18153 ft | 384 kts | 104° |
| 2026-04-26 09:00 | 53.44618 | -5.50105 | 18857 ft | 389 kts | 102° |
| 2026-04-26 09:00 | 53.44269 | -5.45522 | 19146 ft | 406 kts | 95° |
| 2026-04-26 09:00 | 53.44167 | -5.40661 | 19347 ft | 424 kts | 92° |
| 2026-04-26 09:00 | 53.44126 | -5.35637 | 19762 ft | 435 kts | 92° |
| 2026-04-26 09:01 | 53.44061 | -5.30515 | 20307 ft | 441 kts | 93° |
| 2026-04-26 09:01 | 53.43949 | -5.25348 | 20956 ft | 445 kts | 94° |
| 2026-04-26 09:01 | 53.43806 | -5.20133 | 21616 ft | 449 kts | 94° |
| 2026-04-26 09:01 | 53.43652 | -5.14889 | 22244 ft | 453 kts | 94° |
| 2026-04-26 09:02 | 53.43496 | -5.09588 | 22858 ft | 457 kts | 94° |
| 2026-04-26 09:02 | 53.43339 | -5.04217 | 23454 ft | 462 kts | 94° |
| 2026-04-26 09:02 | 53.43183 | -4.98882 | 24001 ft | 467 kts | 94° |
| 2026-04-26 09:02 | 53.43022 | -4.93429 | 24489 ft | 471 kts | 94° |
| 2026-04-26 09:03 | 53.42853 | -4.87839 | 24978 ft | 476 kts | 94° |
| 2026-04-26 09:03 | 53.42681 | -4.82334 | 25445 ft | 480 kts | 95° |
| 2026-04-26 09:03 | 53.42491 | -4.76723 | 25914 ft | 485 kts | 95° |
| 2026-04-26 09:03 | 53.42293 | -4.71047 | 26377 ft | 489 kts | 95° |
| 2026-04-26 09:04 | 53.42090 | -4.65335 | 26838 ft | 493 kts | 95° |
| 2026-04-26 09:04 | 53.41883 | -4.59567 | 27269 ft | 498 kts | 95° |
| 2026-04-26 09:04 | 53.41673 | -4.53752 | 27701 ft | 502 kts | 95° |
| 2026-04-26 09:04 | 53.41460 | -4.47874 | 28129 ft | 506 kts | 95° |
| 2026-04-26 09:05 | 53.41242 | -4.41964 | 28552 ft | 510 kts | 95° |
| 2026-04-26 09:05 | 53.41021 | -4.36004 | 28970 ft | 514 kts | 95° |
| 2026-04-26 09:05 | 53.40794 | -4.29995 | 29357 ft | 518 kts | 95° |
| 2026-04-26 09:05 | 53.40563 | -4.23938 | 29730 ft | 522 kts | 95° |
| 2026-04-26 09:06 | 53.40326 | -4.17834 | 30093 ft | 525 kts | 95° |
| 2026-04-26 09:06 | 53.40087 | -4.11708 | 30490 ft | 527 kts | 95° |
| 2026-04-26 09:06 | 53.39847 | -4.05654 | 30947 ft | 526 kts | 95° |
| 2026-04-26 09:06 | 53.39613 | -3.99478 | 31477 ft | 523 kts | 94° |
| 2026-04-26 09:07 | 53.39596 | -3.93398 | 31991 ft | 522 kts | 88° |
| 2026-04-26 09:07 | 53.39890 | -3.87434 | 32462 ft | 520 kts | 85° |
| 2026-04-26 09:07 | 53.40247 | -3.81410 | 32918 ft | 519 kts | 85° |
| 2026-04-26 09:07 | 53.40587 | -3.75399 | 33367 ft | 518 kts | 85° |
| 2026-04-26 09:08 | 53.40896 | -3.69381 | 33819 ft | 516 kts | 85° |
| 2026-04-26 09:08 | 53.41173 | -3.63386 | 34252 ft | 515 kts | 87° |
| 2026-04-26 09:08 | 53.41237 | -3.57390 | 34629 ft | 513 kts | 93° |
| 2026-04-26 09:08 | 53.40993 | -3.51448 | 35042 ft | 510 kts | 95° |
| 2026-04-26 09:09 | 53.40697 | -3.45529 | 35321 ft | 511 kts | 96° |
| 2026-04-26 09:09 | 53.40112 | -3.33574 | 35300 ft | 521 kts | 95° |
| 2026-04-26 09:10 | 53.39654 | -3.23434 | 35319 ft | 528 kts | 95° |
| 2026-04-26 09:10 | 53.39101 | -3.11134 | 35317 ft | 530 kts | 95° |
| 2026-04-26 09:11 | 53.38624 | -2.98788 | 35321 ft | 530 kts | 94° |
| 2026-04-26 09:11 | 53.38177 | -2.86477 | 35319 ft | 529 kts | 94° |
| 2026-04-26 09:12 | 53.37706 | -2.74191 | 35310 ft | 528 kts | 94° |
| 2026-04-26 09:12 | 53.37210 | -2.61904 | 35315 ft | 528 kts | 94° |
| 2026-04-26 09:13 | 53.36753 | -2.50852 | 35321 ft | 527 kts | 94° |
| 2026-04-26 09:13 | 53.36237 | -2.38618 | 35318 ft | 526 kts | 94° |
| 2026-04-26 09:14 | 53.35695 | -2.26404 | 35320 ft | 526 kts | 96° |
| 2026-04-26 09:14 | 53.34560 | -2.14329 | 35330 ft | 525 kts | 101° |
| 2026-04-26 09:15 | 53.33253 | -2.02301 | 35325 ft | 525 kts | 101° |
| 2026-04-26 09:15 | 53.31975 | -1.90261 | 35326 ft | 526 kts | 101° |
| 2026-04-26 09:16 | 53.30708 | -1.78209 | 35340 ft | 526 kts | 101° |
| 2026-04-26 09:16 | 53.29427 | -1.66135 | 35339 ft | 526 kts | 101° |
| 2026-04-26 09:17 | 53.28137 | -1.54149 | 35334 ft | 527 kts | 101° |
| 2026-04-26 09:17 | 53.26830 | -1.42102 | 35343 ft | 527 kts | 101° |
| 2026-04-26 09:18 | 53.25514 | -1.30058 | 35346 ft | 527 kts | 101° |
| 2026-04-26 09:18 | 53.24185 | -1.18019 | 35325 ft | 527 kts | 101° |
| 2026-04-26 09:19 | 53.22845 | -1.06001 | 35338 ft | 526 kts | 101° |
| 2026-04-26 09:19 | 53.21495 | -0.93996 | 35341 ft | 526 kts | 101° |
| 2026-04-26 09:20 | 53.20133 | -0.81993 | 35344 ft | 527 kts | 101° |
| 2026-04-26 09:20 | 53.18757 | -0.69990 | 35349 ft | 527 kts | 101° |
| 2026-04-26 09:21 | 53.17379 | -0.58069 | 35346 ft | 527 kts | 101° |
| 2026-04-26 09:21 | 53.15980 | -0.46070 | 35347 ft | 527 kts | 101° |
| 2026-04-26 09:22 | 53.14571 | -0.34087 | 35342 ft | 527 kts | 101° |
| 2026-04-26 09:22 | 53.13148 | -0.22103 | 35349 ft | 527 kts | 101° |
| 2026-04-26 09:23 | 53.11714 | -0.10128 | 35347 ft | 527 kts | 101° |
| 2026-04-26 09:23 | 53.10269 | 0.01824 | 35351 ft | 527 kts | 101° |
| 2026-04-26 09:24 | 53.08811 | 0.13775 | 35342 ft | 527 kts | 101° |
| 2026-04-26 09:24 | 53.07341 | 0.25726 | 35351 ft | 527 kts | 102° |
| 2026-04-26 09:25 | 53.05860 | 0.37659 | 35351 ft | 527 kts | 102° |
| 2026-04-26 09:25 | 53.04377 | 0.49505 | 35353 ft | 527 kts | 102° |
| 2026-04-26 09:26 | 53.02873 | 0.61415 | 35360 ft | 527 kts | 102° |
| 2026-04-26 09:26 | 53.01356 | 0.73319 | 35358 ft | 527 kts | 102° |
| 2026-04-26 09:27 | 52.99825 | 0.85240 | 35354 ft | 527 kts | 102° |
| 2026-04-26 09:27 | 52.98288 | 0.97127 | 35364 ft | 527 kts | 102° |
| 2026-04-26 09:28 | 52.96807 | 1.09035 | 35374 ft | 527 kts | 100° |
| 2026-04-26 09:28 | 52.95449 | 1.20966 | 35368 ft | 527 kts | 100° |
| 2026-04-26 09:29 | 52.94082 | 1.32913 | 35367 ft | 527 kts | 100° |
| 2026-04-26 09:29 | 52.92683 | 1.44832 | 35370 ft | 526 kts | 101° |
| 2026-04-26 09:30 | 52.91272 | 1.56646 | 35381 ft | 526 kts | 100° |
| 2026-04-26 09:30 | 52.89839 | 1.68545 | 35371 ft | 526 kts | 101° |
| 2026-04-26 09:31 | 52.88399 | 1.80410 | 35372 ft | 525 kts | 101° |
| 2026-04-26 09:31 | 52.86946 | 1.92280 | 35370 ft | 525 kts | 101° |
| 2026-04-26 09:32 | 52.85484 | 2.04123 | 35386 ft | 524 kts | 101° |
| 2026-04-26 09:32 | 52.84021 | 2.15864 | 35372 ft | 524 kts | 101° |
| 2026-04-26 09:33 | 52.82538 | 2.27669 | 35371 ft | 523 kts | 101° |
| 2026-04-26 09:33 | 52.81048 | 2.39437 | 35375 ft | 522 kts | 101° |
| 2026-04-26 09:34 | 52.79549 | 2.51184 | 35377 ft | 522 kts | 101° |
| 2026-04-26 09:34 | 52.78031 | 2.62912 | 35382 ft | 522 kts | 101° |
| 2026-04-26 09:35 | 52.76504 | 2.74629 | 35376 ft | 521 kts | 101° |
| 2026-04-26 09:35 | 52.74940 | 2.86312 | 35377 ft | 521 kts | 103° |
| 2026-04-26 09:36 | 52.73048 | 2.97859 | 35378 ft | 521 kts | 105° |
| 2026-04-26 09:36 | 52.71047 | 3.09270 | 35381 ft | 521 kts | 105° |
| 2026-04-26 09:37 | 52.69053 | 3.20775 | 35378 ft | 520 kts | 105° |
| 2026-04-26 09:37 | 52.67089 | 3.32256 | 35377 ft | 520 kts | 105° |
| 2026-04-26 09:38 | 52.65126 | 3.43735 | 35378 ft | 520 kts | 105° |
| 2026-04-26 09:38 | 52.63153 | 3.55193 | 35388 ft | 520 kts | 105° |
| 2026-04-26 09:39 | 52.61179 | 3.66561 | 35373 ft | 519 kts | 106° |
| 2026-04-26 09:39 | 52.59181 | 3.77991 | 35375 ft | 519 kts | 106° |
| 2026-04-26 09:40 | 52.57175 | 3.89388 | 35373 ft | 518 kts | 106° |
| 2026-04-26 09:40 | 52.55160 | 4.00762 | 35370 ft | 518 kts | 106° |
| 2026-04-26 09:41 | 52.53136 | 4.12110 | 35368 ft | 517 kts | 106° |
| 2026-04-26 09:41 | 52.51102 | 4.23446 | 35364 ft | 517 kts | 106° |
| 2026-04-26 09:42 | 52.49062 | 4.34755 | 35358 ft | 516 kts | 107° |
| 2026-04-26 09:42 | 52.47012 | 4.46046 | 35355 ft | 516 kts | 107° |
| 2026-04-26 09:43 | 52.44954 | 4.57314 | 35358 ft | 516 kts | 107° |
| 2026-04-26 09:43 | 52.42884 | 4.68580 | 35340 ft | 516 kts | 107° |
| 2026-04-26 09:44 | 52.40801 | 4.79845 | 35343 ft | 516 kts | 107° |
| 2026-04-26 09:44 | 52.38709 | 4.91090 | 35349 ft | 516 kts | 107° |
| 2026-04-26 09:45 | 52.36605 | 5.02332 | 35354 ft | 516 kts | 107° |
| 2026-04-26 09:45 | 52.34495 | 5.13543 | 35344 ft | 515 kts | 107° |
| 2026-04-26 09:46 | 52.32377 | 5.24723 | 35359 ft | 514 kts | 107° |
| 2026-04-26 09:46 | 52.30265 | 5.35808 | 35364 ft | 514 kts | 108° |
| 2026-04-26 09:47 | 52.28129 | 5.46958 | 35369 ft | 513 kts | 108° |
| 2026-04-26 09:47 | 52.26053 | 5.57727 | 35354 ft | 509 kts | 108° |
| 2026-04-26 09:47 | 52.24995 | 5.63191 | 35054 ft | 503 kts | 108° |
| 2026-04-26 09:48 | 52.23945 | 5.68604 | 34538 ft | 498 kts | 108° |
| 2026-04-26 09:48 | 52.22902 | 5.73961 | 34022 ft | 492 kts | 108° |
| 2026-04-26 09:48 | 52.21870 | 5.79251 | 33478 ft | 487 kts | 108° |
| 2026-04-26 09:48 | 52.20843 | 5.84493 | 32947 ft | 482 kts | 108° |
| 2026-04-26 09:49 | 52.19825 | 5.89677 | 32427 ft | 478 kts | 108° |
| 2026-04-26 09:49 | 52.18814 | 5.94819 | 31896 ft | 474 kts | 108° |
| 2026-04-26 09:49 | 52.17809 | 5.99915 | 31414 ft | 470 kts | 108° |
| 2026-04-26 09:49 | 52.16811 | 6.04957 | 30909 ft | 466 kts | 109° |
| 2026-04-26 09:50 | 52.15818 | 6.09965 | 30414 ft | 462 kts | 109° |
| 2026-04-26 09:50 | 52.14829 | 6.14932 | 29847 ft | 459 kts | 109° |
| 2026-04-26 09:50 | 52.13848 | 6.19852 | 29288 ft | 455 kts | 109° |
| 2026-04-26 09:50 | 52.12872 | 6.24737 | 28735 ft | 452 kts | 109° |
| 2026-04-26 09:51 | 52.11903 | 6.29574 | 28198 ft | 448 kts | 109° |
| 2026-04-26 09:51 | 52.10937 | 6.34385 | 27660 ft | 445 kts | 108° |
| 2026-04-26 09:51 | 52.09985 | 6.39113 | 27146 ft | 442 kts | 108° |
| 2026-04-26 09:51 | 52.09029 | 6.43851 | 26641 ft | 439 kts | 109° |
| 2026-04-26 09:52 | 52.08079 | 6.48547 | 26156 ft | 436 kts | 109° |
| 2026-04-26 09:52 | 52.06187 | 6.57869 | 25172 ft | 431 kts | 109° |
| 2026-04-26 09:52 | 52.05250 | 6.62473 | 24820 ft | 426 kts | 109° |
| 2026-04-26 09:53 | 52.04317 | 6.67044 | 24925 ft | 430 kts | 109° |
| 2026-04-26 09:53 | 52.03356 | 6.71739 | 24977 ft | 444 kts | 109° |
| 2026-04-26 09:53 | 52.02222 | 6.76492 | 24976 ft | 458 kts | 115° |
| 2026-04-26 09:53 | 52.00743 | 6.81119 | 24979 ft | 465 kts | 122° |
| 2026-04-26 09:54 | 51.99622 | 6.84077 | 24971 ft | 464 kts | 123° |
| 2026-04-26 09:54 | 51.97913 | 6.88498 | 24961 ft | 461 kts | 123° |
| 2026-04-26 09:54 | 51.96211 | 6.92894 | 24956 ft | 459 kts | 123° |
| 2026-04-26 09:54 | 51.94532 | 6.97265 | 24964 ft | 457 kts | 122° |
| 2026-04-26 09:55 | 51.92862 | 7.01645 | 24966 ft | 455 kts | 122° |
| 2026-04-26 09:55 | 51.91197 | 7.06025 | 24963 ft | 455 kts | 122° |
| 2026-04-26 09:55 | 51.89538 | 7.10397 | 24965 ft | 455 kts | 122° |
| 2026-04-26 09:55 | 51.87881 | 7.14756 | 24965 ft | 456 kts | 122° |
| 2026-04-26 09:56 | 51.86215 | 7.19127 | 24968 ft | 457 kts | 122° |
| 2026-04-26 09:56 | 51.84541 | 7.23506 | 24963 ft | 458 kts | 122° |
| 2026-04-26 09:56 | 51.82864 | 7.27885 | 24962 ft | 459 kts | 122° |
| 2026-04-26 09:56 | 51.81202 | 7.32220 | 24910 ft | 459 kts | 123° |
| 2026-04-26 09:57 | 51.79507 | 7.36636 | 24297 ft | 464 kts | 123° |
| 2026-04-26 09:57 | 51.77813 | 7.41045 | 23715 ft | 460 kts | 123° |
| 2026-04-26 09:57 | 51.76130 | 7.45421 | 23080 ft | 456 kts | 123° |
| 2026-04-26 09:57 | 51.74461 | 7.49749 | 22513 ft | 451 kts | 122° |
| 2026-04-26 09:58 | 51.72770 | 7.53962 | 21976 ft | 442 kts | 128° |
| 2026-04-26 09:58 | 51.70637 | 7.57560 | 21460 ft | 436 kts | 142° |
| 2026-04-26 09:58 | 51.68164 | 7.60220 | 20950 ft | 430 kts | 153° |
| 2026-04-26 09:58 | 51.65437 | 7.62060 | 20438 ft | 421 kts | 163° |
| 2026-04-26 09:59 | 51.62671 | 7.63539 | 19985 ft | 416 kts | 162° |
| 2026-04-26 09:59 | 51.59997 | 7.65004 | 19868 ft | 393 kts | 162° |
| 2026-04-26 09:59 | 51.57489 | 7.66401 | 19648 ft | 370 kts | 162° |
| 2026-04-26 09:59 | 51.55118 | 7.67735 | 19206 ft | 352 kts | 162° |
| 2026-04-26 10:00 | 51.52838 | 7.69021 | 18445 ft | 344 kts | 162° |
| 2026-04-26 10:00 | 51.50559 | 7.70307 | 17644 ft | 351 kts | 162° |
| 2026-04-26 10:00 | 51.48260 | 7.71605 | 17273 ft | 347 kts | 162° |
| 2026-04-26 10:00 | 51.46039 | 7.72861 | 17000 ft | 328 kts | 162° |
| 2026-04-26 10:01 | 51.43930 | 7.74053 | 16486 ft | 319 kts | 162° |
| 2026-04-26 10:01 | 51.41843 | 7.75230 | 16118 ft | 316 kts | 162° |
| 2026-04-26 10:01 | 51.39785 | 7.76388 | 15814 ft | 312 kts | 162° |
| 2026-04-26 10:01 | 51.37773 | 7.77523 | 15309 ft | 304 kts | 162° |
| 2026-04-26 10:02 | 51.35762 | 7.78661 | 14668 ft | 310 kts | 162° |
| 2026-04-26 10:02 | 51.33737 | 7.79807 | 14302 ft | 308 kts | 162° |
| 2026-04-26 10:02 | 51.31722 | 7.80950 | 13962 ft | 305 kts | 162° |
| 2026-04-26 10:02 | 51.29729 | 7.82078 | 13587 ft | 302 kts | 162° |
| 2026-04-26 10:03 | 51.27751 | 7.83197 | 13195 ft | 301 kts | 162° |
| 2026-04-26 10:03 | 51.25797 | 7.84301 | 12709 ft | 295 kts | 162° |
| 2026-04-26 10:03 | 51.23861 | 7.85392 | 11995 ft | 297 kts | 161° |
| 2026-04-26 10:03 | 51.21893 | 7.86500 | 11489 ft | 301 kts | 161° |
| 2026-04-26 10:04 | 51.19933 | 7.87605 | 11214 ft | 296 kts | 161° |
| 2026-04-26 10:04 | 51.18015 | 7.88738 | 10855 ft | 293 kts | 156° |
| 2026-04-26 10:04 | 51.16208 | 7.90237 | 10449 ft | 293 kts | 148° |
| 2026-04-26 10:04 | 51.14445 | 7.91809 | 10315 ft | 291 kts | 162° |
| 2026-04-26 10:05 | 51.12445 | 7.92126 | 10295 ft | 292 kts | 193° |
| 2026-04-26 10:05 | 51.10604 | 7.90902 | 10305 ft | 287 kts | 220° |
| 2026-04-26 10:05 | 51.09251 | 7.88640 | 10298 ft | 281 kts | 240° |
| 2026-04-26 10:05 | 51.08268 | 7.85970 | 10300 ft | 279 kts | 243° |
| 2026-04-26 10:06 | 51.07302 | 7.83291 | 10289 ft | 279 kts | 243° |
| 2026-04-26 10:06 | 51.06532 | 7.80537 | 10257 ft | 269 kts | 263° |
| 2026-04-26 10:06 | 51.06450 | 7.77653 | 9980 ft | 264 kts | 274° |
| 2026-04-26 10:06 | 51.06470 | 7.74755 | 9760 ft | 258 kts | 272° |
| 2026-04-26 10:07 | 51.06474 | 7.71976 | 9626 ft | 246 kts | 272° |
| 2026-04-26 10:07 | 51.06476 | 7.69315 | 9417 ft | 235 kts | 272° |
| 2026-04-26 10:07 | 51.06476 | 7.66774 | 9277 ft | 226 kts | 273° |
| 2026-04-26 10:07 | 51.06476 | 7.64311 | 9144 ft | 219 kts | 273° |
| 2026-04-26 10:08 | 51.06473 | 7.61906 | 8985 ft | 219 kts | 272° |
| 2026-04-26 10:08 | 51.06469 | 7.59475 | 8827 ft | 221 kts | 272° |
| 2026-04-26 10:08 | 51.06464 | 7.57011 | 8652 ft | 224 kts | 273° |
| 2026-04-26 10:08 | 51.06460 | 7.54531 | 8485 ft | 225 kts | 273° |
| 2026-04-26 10:09 | 51.06464 | 7.52063 | 8297 ft | 222 kts | 273° |
| 2026-04-26 10:09 | 51.06468 | 7.49639 | 8129 ft | 217 kts | 273° |
| 2026-04-26 10:09 | 51.06473 | 7.47250 | 7959 ft | 215 kts | 273° |
| 2026-04-26 10:09 | 51.06477 | 7.44872 | 7808 ft | 215 kts | 273° |
| 2026-04-26 10:10 | 51.06481 | 7.42502 | 7654 ft | 215 kts | 273° |
| 2026-04-26 10:10 | 51.06485 | 7.40123 | 7493 ft | 215 kts | 273° |
| 2026-04-26 10:10 | 51.06488 | 7.37750 | 7331 ft | 214 kts | 273° |
| 2026-04-26 10:10 | 51.06487 | 7.35441 | 7149 ft | 204 kts | 273° |
| 2026-04-26 10:11 | 51.06486 | 7.33254 | 6988 ft | 193 kts | 274° |
| 2026-04-26 10:11 | 51.06488 | 7.31111 | 6880 ft | 195 kts | 274° |
| 2026-04-26 10:11 | 51.06491 | 7.28959 | 6754 ft | 194 kts | 275° |
| 2026-04-26 10:11 | 51.06620 | 7.26872 | 6585 ft | 191 kts | 282° |
| 2026-04-26 10:12 | 51.06817 | 7.24827 | 6455 ft | 183 kts | 282° |
| 2026-04-26 10:12 | 51.07007 | 7.22838 | 6306 ft | 181 kts | 282° |
| 2026-04-26 10:12 | 51.07191 | 7.20867 | 6137 ft | 181 kts | 281° |
| 2026-04-26 10:12 | 51.07376 | 7.18843 | 5772 ft | 186 kts | 281° |
| 2026-04-26 10:13 | 51.07555 | 7.16842 | 5563 ft | 179 kts | 281° |
| 2026-04-26 10:13 | 51.07730 | 7.14885 | 5439 ft | 180 kts | 281° |
| 2026-04-26 10:13 | 51.07898 | 7.12883 | 5309 ft | 184 kts | 276° |
| 2026-04-26 10:13 | 51.07861 | 7.10827 | 5168 ft | 189 kts | 269° |
| 2026-04-26 10:14 | 51.07769 | 7.08753 | 5012 ft | 185 kts | 269° |
| 2026-04-26 10:14 | 51.07683 | 7.06729 | 4856 ft | 182 kts | 269° |
| 2026-04-26 10:14 | 51.07603 | 7.04721 | 4723 ft | 182 kts | 269° |
| 2026-04-26 10:14 | 51.07525 | 7.02699 | 4587 ft | 184 kts | 269° |
| 2026-04-26 10:15 | 51.07448 | 7.00670 | 4455 ft | 185 kts | 269° |
| 2026-04-26 10:15 | 51.07372 | 6.98631 | 4320 ft | 186 kts | 268° |
| 2026-04-26 10:15 | 51.06996 | 6.96689 | 4114 ft | 185 kts | 230° |
| 2026-04-26 10:15 | 51.06121 | 6.95298 | 4059 ft | 184 kts | 226° |
| 2026-04-26 10:16 | 51.05234 | 6.93780 | 3924 ft | 189 kts | 229° |
| 2026-04-26 10:16 | 51.04266 | 6.92400 | 3728 ft | 186 kts | 204° |
| 2026-04-26 10:16 | 51.03051 | 6.92228 | 3594 ft | 174 kts | 158° |
| 2026-04-26 10:16 | 51.02056 | 6.93214 | 3528 ft | 179 kts | 141° |
| 2026-04-26 10:17 | 51.01023 | 6.94377 | 3364 ft | 182 kts | 143° |
| 2026-04-26 10:17 | 51.00075 | 6.95511 | 3204 ft | 176 kts | 139° |
| 2026-04-26 10:17 | 50.99162 | 6.96755 | 3087 ft | 170 kts | 136° |
| 2026-04-26 10:17 | 50.98305 | 6.97980 | 3012 ft | 162 kts | 136° |
| 2026-04-26 10:18 | 50.97479 | 6.99186 | 2831 ft | 162 kts | 136° |
| 2026-04-26 10:18 | 50.96645 | 7.00398 | 2585 ft | 162 kts | 136° |
| 2026-04-26 10:18 | 50.95818 | 7.01602 | 2382 ft | 161 kts | 136° |
| 2026-04-26 10:18 | 50.94998 | 7.02800 | 2136 ft | 159 kts | 136° |
| 2026-04-26 10:19 | 50.94202 | 7.03972 | 1886 ft | 153 kts | 137° |
| 2026-04-26 10:19 | 50.93436 | 7.05078 | 1684 ft | 151 kts | 136° |
| 2026-04-26 10:19 | 50.92754 | 7.06060 | 1509 ft | 147 kts | 136° |
| 2026-04-26 10:19 | 50.92051 | 7.07091 | 1332 ft | 148 kts | 137° |
| 2026-04-26 10:20 | 50.91282 | 7.08202 | 1112 ft | 151 kts | 136° |
| 2026-04-26 10:20 | 50.90772 | 7.08944 | 1010 ft | 150 kts | 136° |
| 2026-04-26 10:20 | 50.89993 | 7.10081 | 785 ft | 150 kts | 137° |
| 2026-04-26 10:20 | 50.89226 | 7.11191 | 581 ft | 149 kts | 136° |
| 2026-04-26 10:21 | 50.88466 | 7.12297 | 379 ft | 148 kts | 135° |
| 2026-04-26 10:21 | 50.87709 | 7.13400 | 246 ft | 142 kts | 136° |
| 2026-04-26 10:21 | 50.87055 | 7.14351 | 258 ft | 111 kts | 137° |
| 2026-04-26 10:21 | 50.86574 | 7.15044 | 281 ft | 75 kts | 138° |
| 2026-04-26 10:22 | 50.86303 | 7.15311 | 294 ft | 33 kts | 164° |
| 2026-04-26 10:22 | 50.86128 | 7.15357 | 294 ft | 23 kts | 186° |
| 2026-04-26 10:22 | 50.86054 | 7.15272 | 300 ft | 0 kts | 249° |
| 2026-04-26 10:24 | 50.86054 | 7.15271 | 300 ft | 1 kts | 249° |
| 2026-04-26 10:24 | 50.86048 | 7.15249 | 299 ft | 4 kts | 249° |
| 2026-04-26 10:25 | 50.86047 | 7.15190 | 299 ft | 7 kts | 281° |
| 2026-04-26 10:25 | 50.86070 | 7.15101 | 298 ft | 11 kts | 307° |
| 2026-04-26 10:25 | 50.86132 | 7.15006 | 294 ft | 13 kts | 318° |
| 2026-04-26 10:25 | 50.86204 | 7.14902 | 289 ft | 15 kts | 317° |
| 2026-04-26 10:26 | 50.86288 | 7.14780 | 283 ft | 18 kts | 317° |
| 2026-04-26 10:26 | 50.86386 | 7.14637 | 277 ft | 20 kts | 317° |
| 2026-04-26 10:26 | 50.86497 | 7.14477 | 271 ft | 23 kts | 317° |
| 2026-04-26 10:26 | 50.86620 | 7.14299 | 266 ft | 24 kts | 318° |
| 2026-04-26 10:27 | 50.86736 | 7.14145 | 260 ft | 17 kts | 338° |
| 2026-04-26 10:27 | 50.86835 | 7.14047 | 259 ft | 17 kts | 317° |
| 2026-04-26 10:27 | 50.86926 | 7.13914 | 254 ft | 20 kts | 317° |
| 2026-04-26 10:27 | 50.87038 | 7.13751 | 247 ft | 23 kts | 317° |
| 2026-04-26 10:28 | 50.87122 | 7.13631 | 243 ft | 13 kts | 318° |
| 2026-04-26 10:28 | 50.87195 | 7.13528 | 241 ft | 15 kts | 319° |
| 2026-04-26 10:28 | 50.87274 | 7.13412 | 238 ft | 16 kts | 314° |
| 2026-04-26 10:28 | 50.87343 | 7.13309 | 237 ft | 9 kts | 319° |
| 2026-04-26 10:29 | 50.87363 | 7.13281 | 237 ft | 2 kts | 319° |
| 2026-04-26 10:29 | 50.87376 | 7.13265 | 237 ft | 3 kts | 322° |
| 2026-04-26 10:29 | 50.87383 | 7.13224 | 237 ft | 5 kts | 253° |
| 2026-04-26 10:29 | 50.87356 | 7.13173 | 237 ft | 7 kts | 227° |
| 2026-04-26 10:30 | 50.87344 | 7.13152 | 237 ft | 4 kts | 227° |
| 2026-04-26 10:30 | 50.87334 | 7.13134 | 237 ft | 2 kts | 227° |
| 2026-04-26 10:30 | 50.87333 | 7.13133 | 237 ft | 0 kts | 227° |